Time;durP1;ratioP1;P1;durP2;ratioP2;P2;SDS_P1;SDS_P2;PMS_P1;PMS_P2;Temp;Humidity;BMP_temperature;BMP_pressure;BME280_temperature;BME280_humidity;BME280_pressure;Samples;Min_cycle;Max_cycle;Signal;HPM_P1;HPM_P2
2022/12/11 00:02:18;;;;;;;25.30;14.80;;;22.10;56.00;;;;;;215002;1282;22459;-53
2022/12/11 00:07:21;;;;;;;27.10;15.80;;;22.00;55.70;;;;;;215061;1281;25504;-55
2022/12/11 00:12:29;;;;;;;25.90;14.80;;;21.90;55.90;;;;;;214909;1267;161017;-51
2022/12/11 00:17:33;;;;;;;24.30;14.90;;;21.90;56.00;;;;;;215039;1284;22689;-54
2022/12/11 00:22:37;;;;;;;24.30;14.40;;;21.80;56.10;;;;;;214980;1275;25510;-53
2022/12/11 00:27:41;;;;;;;23.30;13.90;;;21.80;56.20;;;;;;215084;1274;24409;-51
2022/12/11 00:32:45;;;;;;;23.90;14.60;;;21.70;56.20;;;;;;214925;1291;22509;-56
2022/12/11 00:37:49;;;;;;;25.80;14.40;;;21.60;57.00;;;;;;214976;1276;24276;-53
2022/12/11 00:42:53;;;;;;;24.60;15.00;;;21.60;56.50;;;;;;214969;1278;23848;-52
2022/12/11 00:47:57;;;;;;;23.70;15.00;;;21.60;56.30;;;;;;214898;1288;25448;-55
2022/12/11 00:53:02;;;;;;;24.20;14.60;;;21.70;56.20;;;;;;214967;1285;25598;-54
2022/12/11 00:58:06;;;;;;;22.70;14.30;;;21.60;56.00;;;;;;215058;1275;22469;-55
2022/12/11 01:03:12;;;;;;;24.90;15.20;;;21.60;56.30;;;;;;215041;1274;22705;-54
2022/12/11 01:08:16;;;;;;;22.30;14.60;;;21.50;56.00;;;;;;215066;1277;22470;-55
2022/12/11 01:13:20;;;;;;;23.00;15.20;;;21.50;56.00;;;;;;215002;1285;25480;-55
2022/12/11 01:18:25;;;;;;;21.90;13.70;;;21.40;55.80;;;;;;215141;1285;25453;-54
2022/12/11 01:23:28;;;;;;;22.30;14.40;;;21.30;55.80;;;;;;215065;1275;22470;-55
2022/12/11 01:28:32;;;;;;;21.10;13.50;;;21.30;55.90;;;;;;215448;1280;25774;-54
2022/12/11 01:33:37;;;;;;;21.60;14.70;;;21.30;55.80;;;;;;215373;1297;25993;-54
2022/12/11 01:38:43;;;;;;;23.30;15.00;;;21.20;55.80;;;;;;215596;1283;24313;-53
2022/12/11 01:44:27;;;;;;;24.80;14.20;;;21.30;55.80;;;;;;215572;1280;22491;-54
2022/12/11 01:49:31;;;;;;;22.50;14.50;;;21.20;55.30;;;;;;215033;1297;22590;-56
2022/12/11 01:54:34;;;;;;;20.10;12.90;;;21.10;55.70;;;;;;215361;1297;25330;-54
2022/12/11 01:59:42;;;;;;;21.60;13.10;;;21.30;55.70;;;;;;215493;1277;24159;-56
2022/12/11 02:04:47;;;;;;;18.80;11.90;;;21.70;55.00;;;;;;215555;1296;26519;-54
2022/12/11 02:09:51;;;;;;;20.70;13.20;;;22.10;54.50;;;;;;215467;1269;22508;-54
2022/12/11 02:15:16;;;;;;;19.90;12.80;;;22.30;53.80;;;;;;215613;1298;25348;-54
2022/12/11 02:20:26;;;;;;;18.30;12.60;;;22.50;52.90;;;;;;215642;1275;25365;-54
2022/12/11 02:25:45;;;;;;;20.90;12.30;;;22.70;52.60;;;;;;215538;1272;25101;-53
2022/12/11 02:30:56;;;;;;;18.40;11.60;;;22.70;52.20;;;;;;215469;1287;22519;-55
2022/12/11 02:36:01;;;;;;;18.00;11.80;;;22.80;52.50;;;;;;215436;1277;24794;-55
2022/12/11 02:41:07;;;;;;;18.20;11.70;;;22.90;51.90;;;;;;215446;1282;23836;-55
2022/12/11 02:46:11;;;;;;;17.80;11.80;;;22.90;51.70;;;;;;215538;1284;22693;-55
2022/12/11 02:51:20;;;;;;;17.80;11.00;;;23.00;51.70;;;;;;215522;1282;22579;-56
2022/12/11 02:56:39;;;;;;;17.50;11.40;;;23.00;52.00;;;;;;215498;1282;25246;-58
2022/12/11 03:01:43;;;;;;;17.80;11.50;;;23.10;51.50;;;;;;215445;1277;25490;-54
2022/12/11 03:06:51;;;;;;;16.00;11.40;;;23.10;51.50;;;;;;215565;1297;23844;-54
2022/12/11 03:11:55;;;;;;;17.30;11.60;;;23.10;51.50;;;;;;215510;1294;22509;-54
2022/12/11 03:17:07;;;;;;;16.70;10.30;;;23.20;51.40;;;;;;215508;1277;24216;-55
2022/12/11 03:22:40;;;;;;;16.50;10.80;;;23.10;51.40;;;;;;215155;1298;25403;-53
2022/12/11 03:28:02;;;;;;;15.50;10.90;;;23.10;51.50;;;;;;214986;1287;25528;-56
2022/12/11 03:33:22;;;;;;;17.90;11.70;;;22.90;51.70;;;;;;215482;1283;24202;-54
2022/12/11 03:38:33;;;;;;;15.10;10.10;;;22.80;52.00;;;;;;215642;1272;23067;-54
2022/12/11 03:43:39;;;;;;;15.90;10.30;;;22.70;52.40;;;;;;215555;1280;22720;-55
2022/12/11 03:48:45;;;;;;;15.10;10.30;;;22.60;53.00;;;;;;215543;1291;25550;-54
2022/12/11 03:53:51;;;;;;;15.50;10.90;;;22.50;53.00;;;;;;215371;1280;22590;-54
2022/12/11 03:58:54;;;;;;;17.80;10.90;;;22.40;53.40;;;;;;215586;1289;25407;-55
2022/12/11 04:03:58;;;;;;;15.70;10.80;;;22.30;53.20;;;;;;215420;1282;23837;-54
2022/12/11 04:09:02;;;;;;;16.20;10.50;;;22.20;53.30;;;;;;215374;1275;23989;-56
2022/12/11 04:24:54;;;;;;;15.00;10.10;;;21.90;53.50;;;;;;215011;1297;25291;-54
2022/12/11 04:29:57;;;;;;;17.80;10.40;;;21.90;53.80;;;;;;215444;1287;24247;-55
2022/12/11 04:35:01;;;;;;;14.50;10.10;;;21.80;53.80;;;;;;215056;1289;25498;-53
2022/12/11 04:40:09;;;;;;;13.20;9.90;;;21.70;53.80;;;;;;215292;1282;24283;-56
2022/12/11 04:45:14;;;;;;;13.90;9.10;;;21.60;54.00;;;;;;215207;1269;23099;-54
2022/12/11 04:50:18;;;;;;;14.40;9.80;;;21.60;54.30;;;;;;215263;1286;22629;-54
2022/12/11 04:55:22;;;;;;;15.70;10.70;;;21.60;54.10;;;;;;215277;1286;22841;-55
2022/12/11 05:00:26;;;;;;;13.90;9.90;;;21.50;53.90;;;;;;215377;1281;22472;-56
2022/12/11 05:05:29;;;;;;;14.70;10.40;;;21.40;54.50;;;;;;215239;1277;22817;-56
2022/12/11 05:10:33;;;;;;;13.90;10.20;;;21.40;53.90;;;;;;214958;1295;24018;-54
2022/12/11 05:15:39;;;;;;;15.60;10.00;;;21.40;54.20;;;;;;214962;1284;24393;-53
2022/12/11 05:20:43;;;;;;;12.10;8.80;;;21.30;54.30;;;;;;214846;1291;24665;-54
2022/12/11 05:25:58;;;;;;;12.60;8.60;;;21.30;54.40;;;;;;214975;1275;24190;-53
2022/12/11 05:31:14;;;;;;;13.30;8.30;;;21.60;54.30;;;;;;214941;1282;25225;-53
2022/12/11 05:36:20;;;;;;;13.00;8.50;;;22.00;53.20;;;;;;215028;1274;22469;-53
2022/12/11 05:41:26;;;;;;;12.80;8.70;;;22.30;52.40;;;;;;215018;1277;24333;-53
2022/12/11 05:46:30;;;;;;;13.00;8.60;;;22.50;51.90;;;;;;214948;1283;25208;-55
2022/12/11 05:51:34;;;;;;;13.30;8.90;;;22.60;51.70;;;;;;215114;1274;25510;-53
2022/12/11 05:56:37;;;;;;;12.40;8.70;;;22.70;51.20;;;;;;215019;1277;24765;-55
2022/12/11 06:01:42;;;;;;;10.90;8.00;;;22.90;51.10;;;;;;215137;1284;24187;-54
2022/12/11 06:06:46;;;;;;;12.50;8.20;;;22.90;50.90;;;;;;215059;1275;22628;-54
2022/12/11 06:11:50;;;;;;;11.30;8.30;;;23.00;50.80;;;;;;215084;1281;26266;-55
2022/12/11 06:16:53;;;;;;;11.30;8.30;;;22.90;50.70;;;;;;215034;1300;23838;-54
2022/12/11 06:21:57;;;;;;;10.30;7.80;;;23.00;50.70;;;;;;214999;1282;25526;-54
2022/12/11 06:27:01;;;;;;;11.50;7.80;;;23.00;50.60;;;;;;215033;1285;22552;-54
2022/12/11 06:32:05;;;;;;;10.80;8.30;;;23.10;50.50;;;;;;215283;1281;25162;-53
2022/12/11 06:37:10;;;;;;;13.00;7.80;;;23.10;50.50;;;;;;215074;1279;22467;-55
2022/12/11 06:42:15;;;;;;;10.80;7.80;;;23.10;50.80;;;;;;215049;1284;22585;-59
2022/12/11 06:47:19;;;;;;;10.50;7.50;;;23.20;50.70;;;;;;215152;1277;24044;-54
2022/12/11 06:52:26;;;;;;;10.50;7.60;;;23.10;50.30;;;;;;215048;1282;22465;-56
2022/12/11 06:57:30;;;;;;;10.40;7.50;;;23.20;50.30;;;;;;214996;1279;22673;-53
2022/12/11 07:02:34;;;;;;;9.40;7.00;;;23.00;50.50;;;;;;215052;1285;24248;-55
2022/12/11 07:07:40;;;;;;;9.80;7.10;;;23.00;51.00;;;;;;215104;1299;23858;-53
2022/12/11 07:12:44;;;;;;;10.50;7.20;;;22.80;51.20;;;;;;215302;1283;22470;-53
2022/12/11 07:17:48;;;;;;;10.30;7.80;;;22.70;51.40;;;;;;215253;1276;25317;-54
2022/12/11 07:22:53;;;;;;;9.70;7.30;;;22.60;51.70;;;;;;215304;1276;22513;-53
2022/12/11 07:27:58;;;;;;;10.10;7.10;;;22.50;52.00;;;;;;215164;1274;24256;-54
2022/12/11 07:33:02;;;;;;;10.10;7.50;;;22.40;52.10;;;;;;215418;1294;25320;-55
2022/12/11 07:38:08;;;;;;;10.60;7.10;;;22.30;52.40;;;;;;215342;1283;23895;-53
2022/12/11 07:43:12;;;;;;;9.10;6.80;;;22.20;52.40;;;;;;215392;1276;22469;-54
2022/12/11 07:48:20;;;;;;;9.80;7.70;;;22.10;52.60;;;;;;215386;1275;24272;-53
2022/12/11 07:53:24;;;;;;;10.90;7.50;;;22.00;52.70;;;;;;215292;1291;24222;-55
2022/12/11 07:58:31;;;;;;;9.70;6.90;;;21.90;52.80;;;;;;215377;1283;22456;-53
2022/12/11 08:03:36;;;;;;;9.80;7.10;;;21.80;52.90;;;;;;215110;1269;22610;-54
2022/12/11 08:08:46;;;;;;;10.80;7.40;;;21.80;53.00;;;;;;215321;1277;22700;-52
2022/12/11 08:13:54;;;;;;;8.80;6.60;;;21.70;53.10;;;;;;215642;1279;25370;-55
2022/12/11 08:18:59;;;;;;;9.90;6.90;;;21.70;53.30;;;;;;215607;1293;26483;-55
2022/12/11 08:24:19;;;;;;;8.90;6.90;;;21.60;53.30;;;;;;215269;1286;24441;-56
2022/12/11 08:29:26;;;;;;;9.30;6.60;;;21.50;53.30;;;;;;215644;1280;24306;-54
2022/12/11 08:34:31;;;;;;;8.80;6.70;;;21.50;53.30;;;;;;215558;1281;22528;-55
2022/12/11 08:39:38;;;;;;;11.60;7.20;;;21.40;52.90;;;;;;215566;1282;22518;-55
2022/12/11 08:44:42;;;;;;;10.30;7.00;;;21.40;53.90;;;;;;215502;1276;22466;-55
2022/12/11 08:49:46;;;;;;;8.30;6.20;;;21.30;54.00;;;;;;215537;1272;22529;-55
2022/12/11 08:54:57;;;;;;;10.70;6.00;;;21.30;54.30;;;;;;215590;1275;22493;-55
2022/12/11 09:00:14;;;;;;;8.80;5.90;;;21.70;53.60;;;;;;215592;1291;22595;-56
2022/12/11 09:05:30;;;;;;;10.90;5.90;;;22.00;53.20;;;;;;215623;1275;25604;-55
2022/12/11 09:10:38;;;;;;;8.20;5.70;;;22.20;52.20;;;;;;215645;1281;24251;-56
2022/12/11 09:15:43;;;;;;;9.30;6.10;;;22.30;51.90;;;;;;215280;1268;25435;-55
2022/12/11 09:20:46;;;;;;;9.50;6.00;;;22.40;51.90;;;;;;215497;1283;23877;-52
2022/12/11 09:25:55;;;;;;;10.00;5.60;;;22.50;51.30;;;;;;215524;1276;22700;-54
2022/12/11 09:31:00;;;;;;;7.40;5.70;;;22.60;51.20;;;;;;215493;1276;22482;-53
2022/12/11 09:36:07;;;;;;;10.00;6.30;;;22.60;50.80;;;;;;215448;1269;22509;-54
2022/12/11 09:41:25;;;;;;;8.40;6.00;;;22.70;50.90;;;;;;215014;1279;22528;-54
2022/12/11 09:46:57;;;;;;;8.40;5.70;;;22.70;50.80;;;;;;215328;1269;26423;-54
2022/12/11 09:52:13;;;;;;;7.30;5.50;;;22.80;50.20;;;;;;215301;1275;22817;-56
2022/12/11 09:58:27;;;;;;;9.10;6.30;;;23.00;49.60;;;;;;215457;1269;24460;-55
2022/12/11 10:03:40;;;;;;;9.70;5.90;;;23.10;48.60;;;;;;215537;1276;22509;-55
2022/12/11 10:09:10;;;;;;;13.50;6.30;;;23.10;48.90;;;;;;215577;1276;22850;-55
2022/12/11 10:14:33;;;;;;;9.50;6.60;;;23.00;49.40;;;;;;215531;1269;24227;-51
2022/12/11 10:19:40;;;;;;;9.70;6.60;;;23.10;49.60;;;;;;215533;1279;22500;-54
2022/12/11 10:25:04;;;;;;;9.10;6.00;;;23.10;48.90;;;;;;215662;1269;23931;-53
2022/12/11 10:30:24;;;;;;;9.10;5.80;;;23.00;49.30;;;;;;215224;1283;24276;-55
2022/12/11 10:35:39;;;;;;;9.80;6.00;;;22.80;49.70;;;;;;215598;1281;26682;-54
2022/12/11 10:41:04;;;;;;;8.20;5.90;;;22.80;49.30;;;;;;215541;1279;24250;-57
2022/12/11 10:46:22;;;;;;;10.00;6.00;;;22.60;49.50;;;;;;215331;1268;22641;-52
2022/12/11 10:51:30;;;;;;;13.10;6.50;;;22.40;50.50;;;;;;215514;1281;22703;-55
2022/12/11 10:56:37;;;;;;;12.30;6.10;;;22.30;50.60;;;;;;215248;1275;22608;-51
2022/12/11 11:01:46;;;;;;;9.20;6.00;;;22.30;51.70;;;;;;215494;1283;25934;-52
2022/12/11 11:07:12;;;;;;;11.50;5.70;;;22.20;52.30;;;;;;215543;1269;24308;-52
2022/12/11 11:12:26;;;;;;;8.80;5.70;;;22.10;52.30;;;;;;215481;1269;24243;-52
2022/12/11 11:17:53;;;;;;;9.90;6.00;;;22.00;52.30;;;;;;215450;1277;24246;-52
2022/12/11 11:23:20;;;;;;;9.40;5.30;;;22.00;52.40;;;;;;215271;1279;24241;-54
2022/12/11 11:28:29;;;;;;;12.50;5.90;;;21.90;52.20;;;;;;215616;1276;22466;-54
2022/12/11 11:34:02;;;;;;;11.50;6.00;;;21.80;52.00;;;;;;215481;1297;25305;-53
2022/12/11 11:39:44;;;;;;;10.40;5.80;;;21.80;52.20;;;;;;215435;1275;25274;-54
2022/12/11 11:45:15;;;;;;;8.80;5.20;;;21.70;52.00;;;;;;215451;1276;23267;-54
2022/12/11 11:50:25;;;;;;;9.20;6.00;;;21.60;51.60;;;;;;215549;1269;25369;-54
2022/12/11 11:56:25;;;;;;;8.10;6.00;;;21.50;51.50;;;;;;215417;1275;22483;-53
2022/12/11 12:01:31;;;;;;;8.90;6.00;;;21.40;51.50;;;;;;215156;1269;22444;-52
2022/12/11 12:07:03;;;;;;;8.90;5.80;;;21.30;52.00;;;;;;215798;1269;25753;-54
2022/12/11 12:12:33;;;;;;;10.10;5.20;;;21.30;51.10;;;;;;215123;1275;260391;-53
2022/12/11 12:17:49;;;;;;;11.90;5.50;;;21.20;51.50;;;;;;215460;1276;25271;-53
2022/12/11 12:23:17;;;;;;;8.10;5.10;;;21.20;51.90;;;;;;215662;1276;25247;-54
2022/12/11 12:28:35;;;;;;;10.70;5.50;;;21.10;52.40;;;;;;215569;1275;22848;-55
2022/12/11 12:33:57;;;;;;;8.00;5.10;;;21.30;51.80;;;;;;215583;1276;22568;-54
2022/12/11 12:39:26;;;;;;;7.90;5.20;;;21.70;51.00;;;;;;215511;1283;24365;-54
2022/12/11 12:44:46;;;;;;;10.30;4.70;;;21.90;50.30;;;;;;215413;1282;22503;-55
2022/12/11 12:49:53;;;;;;;8.60;4.70;;;22.10;50.10;;;;;;215347;1277;25260;-54
2022/12/11 12:55:15;;;;;;;9.50;5.10;;;22.30;49.80;;;;;;215307;1292;22642;-52
2022/12/11 13:00:42;;;;;;;9.50;3.90;;;22.60;49.50;;;;;;215514;1269;24243;-52
2022/12/11 13:06:03;;;;;;;10.30;4.20;;;22.60;50.20;;;;;;215493;1276;22580;-54
2022/12/11 13:11:18;;;;;;;7.10;4.20;;;22.60;49.50;;;;;;215615;1276;22518;-53
2022/12/11 13:16:31;;;;;;;7.00;5.00;;;22.60;49.80;;;;;;215599;1275;22458;-56
2022/12/11 13:21:40;;;;;;;6.80;4.30;;;22.60;49.90;;;;;;215522;1269;23873;-57
2022/12/11 13:26:46;;;;;;;8.40;4.60;;;22.70;49.60;;;;;;215507;1281;27929;-55
2022/12/11 13:32:04;;;;;;;7.90;4.70;;;22.70;49.50;;;;;;215412;1269;25928;-55
2022/12/11 13:37:26;;;;;;;10.50;4.60;;;22.70;50.00;;;;;;215556;1276;22492;-55
2022/12/11 13:43:06;;;;;;;8.50;4.40;;;22.80;49.50;;;;;;215609;1293;22528;-55
2022/12/11 13:48:44;;;;;;;14.20;4.60;;;22.80;49.70;;;;;;215522;1275;22506;-56
2022/12/11 13:54:17;;;;;;;11.90;4.60;;;22.90;50.70;;;;;;215493;1272;22453;-57
2022/12/11 13:59:32;;;;;;;17.50;5.50;;;23.00;53.00;;;;;;215536;1283;22462;-56
2022/12/11 14:04:37;;;;;;;8.10;4.90;;;23.30;54.60;;;;;;215563;1276;22935;-56
2022/12/11 14:09:45;;;;;;;10.40;4.70;;;23.20;54.40;;;;;;215557;1276;22464;-57
2022/12/11 14:14:58;;;;;;;14.10;4.60;;;23.20;57.20;;;;;;215519;1276;25458;-56
2022/12/11 14:20:32;;;;;;;13.30;5.50;;;23.10;57.90;;;;;;215188;1297;25309;-56
2022/12/11 14:25:39;;;;;;;8.70;5.00;;;23.00;58.70;;;;;;215317;1282;23880;-57
2022/12/11 14:30:58;;;;;;;13.90;5.40;;;22.90;57.90;;;;;;215661;1293;22501;-56
2022/12/11 14:36:07;;;;;;;12.60;4.90;;;22.80;58.00;;;;;;215532;1282;22537;-56
2022/12/11 14:41:23;;;;;;;9.90;5.00;;;22.70;59.40;;;;;;215305;1275;22507;-58
2022/12/11 14:46:44;;;;;;;13.70;5.20;;;22.60;61.30;;;;;;215540;1271;22459;-56
2022/12/11 14:52:02;;;;;;;16.50;5.80;;;22.50;62.30;;;;;;215631;1271;24340;-57
2022/12/11 14:57:22;;;;;;;14.50;5.60;;;22.40;63.50;;;;;;215515;1277;22508;-55
2022/12/11 15:02:31;;;;;;;9.80;4.90;;;22.40;64.40;;;;;;215324;1279;23009;-55
2022/12/11 15:07:40;;;;;;;11.00;4.90;;;22.30;63.40;;;;;;215522;1292;25490;-56
2022/12/11 15:12:48;;;;;;;11.00;5.60;;;22.10;62.90;;;;;;215650;1293;23830;-57
2022/12/11 15:18:11;;;;;;;11.70;4.70;;;22.10;62.50;;;;;;215567;1269;25547;-55
2022/12/11 15:23:21;;;;;;;14.20;4.90;;;22.10;61.70;;;;;;215705;1276;22814;-56
2022/12/11 15:28:38;;;;;;;16.70;5.80;;;22.00;61.80;;;;;;215630;1283;23881;-57
2022/12/11 15:33:48;;;;;;;16.50;5.10;;;22.00;60.90;;;;;;215679;1276;22521;-58
2022/12/11 15:39:04;;;;;;;11.60;4.90;;;22.00;60.80;;;;;;215381;1276;23137;-57
2022/12/11 15:44:20;;;;;;;11.50;4.60;;;21.90;60.20;;;;;;215504;1276;25601;-58
2022/12/11 15:49:32;;;;;;;11.30;4.90;;;21.80;60.30;;;;;;215245;1269;24045;-59
2022/12/11 15:54:36;;;;;;;9.90;4.60;;;21.80;60.00;;;;;;215739;1276;26548;-58
2022/12/11 16:00:02;;;;;;;10.70;5.00;;;21.70;59.70;;;;;;215627;1269;22470;-59
2022/12/11 16:05:18;;;;;;;9.80;4.50;;;21.60;59.50;;;;;;215341;1275;24243;-57
2022/12/11 16:10:36;;;;;;;8.50;4.20;;;21.50;59.30;;;;;;215273;1277;24291;-58
2022/12/11 16:15:47;;;;;;;11.20;4.90;;;21.50;58.50;;;;;;215156;1281;24585;-56
2022/12/11 16:20:54;;;;;;;8.90;4.50;;;21.50;58.50;;;;;;215458;1269;22693;-56
2022/12/11 16:26:13;;;;;;;15.10;5.10;;;21.40;58.60;;;;;;215657;1291;23837;-53
2022/12/11 16:31:25;;;;;;;16.40;5.50;;;21.40;58.30;;;;;;215492;1276;23863;-55
2022/12/11 16:36:38;;;;;;;13.30;4.60;;;21.20;58.30;;;;;;215517;1276;24275;-58
2022/12/11 16:41:42;;;;;;;11.80;3.90;;;21.20;58.20;;;;;;215516;1276;22472;-55
2022/12/11 16:46:56;;;;;;;14.10;4.80;;;21.10;58.60;;;;;;215517;1283;22580;-55
2022/12/11 16:52:01;;;;;;;13.20;4.30;;;21.10;59.20;;;;;;215412;1274;22472;-55
2022/12/11 16:57:18;;;;;;;14.40;4.50;;;21.10;60.50;;;;;;215171;1272;22475;-56
2022/12/11 17:02:29;;;;;;;11.80;4.40;;;21.20;60.50;;;;;;215500;1279;24227;-55
2022/12/11 17:07:34;;;;;;;10.70;4.20;;;21.10;60.30;;;;;;215529;1269;22449;-54
2022/12/11 17:12:38;;;;;;;11.60;4.30;;;21.00;60.00;;;;;;215460;1269;25373;-56
2022/12/11 17:17:42;;;;;;;7.90;4.40;;;20.90;59.90;;;;;;215492;1272;24009;-54
2022/12/11 17:22:46;;;;;;;12.50;3.90;;;20.90;60.00;;;;;;215650;1280;22451;-57
2022/12/11 17:27:56;;;;;;;8.70;4.20;;;20.90;60.20;;;;;;215468;1277;22583;-55
2022/12/11 17:33:01;;;;;;;16.20;4.70;;;20.80;59.90;;;;;;215581;1272;22471;-56
2022/12/11 17:38:05;;;;;;;8.40;4.10;;;20.80;59.60;;;;;;215548;1272;24227;-57
2022/12/11 17:43:11;;;;;;;10.70;4.30;;;20.80;59.40;;;;;;215526;1282;24227;-56
2022/12/11 17:48:15;;;;;;;15.10;3.80;;;20.70;59.50;;;;;;215546;1276;24021;-56
2022/12/11 17:53:20;;;;;;;11.70;4.10;;;20.70;59.40;;;;;;215391;1279;24238;-54
2022/12/11 17:58:26;;;;;;;16.20;4.60;;;20.70;59.10;;;;;;215609;1277;24316;-55
2022/12/11 18:03:30;;;;;;;14.40;4.90;;;20.90;58.80;;;;;;215532;1278;22474;-56
2022/12/11 18:08:34;;;;;;;18.00;5.30;;;21.40;58.60;;;;;;215569;1283;24969;-58
2022/12/11 18:13:38;;;;;;;17.30;5.50;;;21.80;57.90;;;;;;215502;1283;24244;-58
2022/12/11 18:18:42;;;;;;;10.80;3.90;;;22.10;57.00;;;;;;215474;1280;25607;-56
2022/12/11 18:23:48;;;;;;;9.10;5.20;;;22.30;56.70;;;;;;215714;1283;23856;-57
2022/12/11 18:28:54;;;;;;;11.10;4.00;;;22.50;56.10;;;;;;215528;1280;22692;-56
2022/12/11 18:34:04;;;;;;;11.00;4.70;;;22.60;55.30;;;;;;215537;1282;24069;-55
2022/12/11 18:39:09;;;;;;;11.50;4.30;;;22.70;55.20;;;;;;215553;1276;25206;-55
2022/12/11 18:44:24;;;;;;;10.60;4.50;;;22.80;54.80;;;;;;215457;1269;23879;-56
2022/12/11 18:49:30;;;;;;;7.70;4.50;;;22.80;54.60;;;;;;215535;1276;27577;-56
2022/12/11 18:54:51;;;;;;;11.00;4.60;;;22.90;54.40;;;;;;215484;1283;22452;-57
2022/12/11 19:00:01;;;;;;;8.40;4.20;;;22.80;54.40;;;;;;215696;1282;24308;-56
2022/12/11 19:05:06;;;;;;;8.90;4.10;;;22.70;54.60;;;;;;215595;1275;23050;-55
2022/12/11 19:10:14;;;;;;;9.00;4.40;;;22.50;54.80;;;;;;215639;1277;22516;-56
2022/12/11 19:15:21;;;;;;;8.60;4.10;;;22.50;55.00;;;;;;215599;1281;22455;-56
2022/12/11 19:20:30;;;;;;;10.60;4.30;;;22.30;55.90;;;;;;215516;1297;25363;-58
2022/12/11 19:26:14;;;;;;;11.30;4.40;;;22.10;55.60;;;;;;215398;1277;22467;-56
2022/12/11 19:31:24;;;;;;;12.50;4.20;;;21.90;56.40;;;;;;215242;1275;25573;-56
2022/12/11 19:36:36;;;;;;;15.30;4.10;;;21.90;56.20;;;;;;215538;1281;24250;-54
2022/12/11 19:41:45;;;;;;;8.90;4.40;;;21.90;56.00;;;;;;215016;1293;25247;-55
2022/12/11 19:47:09;;;;;;;11.80;5.00;;;21.80;56.00;;;;;;215241;1282;25252;-56
2022/12/11 19:52:18;;;;;;;8.30;4.40;;;21.70;56.10;;;;;;215538;1276;22458;-54
2022/12/11 19:57:26;;;;;;;10.50;4.60;;;21.60;56.20;;;;;;215392;1277;22495;-54
2022/12/11 20:02:34;;;;;;;18.30;4.80;;;21.50;56.70;;;;;;215479;1277;24359;-56
2022/12/11 20:07:57;;;;;;;9.50;5.00;;;21.40;57.30;;;;;;215558;1277;24548;-54
2022/12/11 20:13:31;;;;;;;17.00;4.10;;;21.40;58.50;;;;;;215165;1297;24022;-54
2022/12/11 20:18:42;;;;;;;10.80;4.40;;;21.30;58.20;;;;;;215095;1274;22475;-53
2022/12/11 20:23:47;;;;;;;12.20;4.60;;;21.30;58.10;;;;;;215144;1285;22448;-55
2022/12/11 20:28:53;;;;;;;11.90;5.20;;;21.10;58.50;;;;;;214977;1282;22475;-53
2022/12/11 20:33:58;;;;;;;9.20;4.00;;;21.10;59.00;;;;;;215082;1281;22721;-54
2022/12/11 20:39:02;;;;;;;11.30;3.70;;;21.00;58.80;;;;;;214871;1278;25557;-55
2022/12/11 20:44:06;;;;;;;9.30;4.50;;;20.90;58.80;;;;;;215173;1282;22726;-53
2022/12/11 20:49:11;;;;;;;7.20;3.80;;;20.90;59.10;;;;;;215026;1277;25070;-54
2022/12/11 20:54:15;;;;;;;10.20;3.80;;;20.90;59.00;;;;;;215181;1277;22614;-52
2022/12/11 20:59:19;;;;;;;10.90;4.30;;;20.90;59.20;;;;;;215076;1273;23848;-54
2022/12/11 21:04:24;;;;;;;8.30;4.60;;;20.90;59.20;;;;;;215040;1274;25266;-52
2022/12/11 21:09:28;;;;;;;6.20;4.00;;;20.90;59.10;;;;;;215199;1298;25275;-54
2022/12/11 21:14:32;;;;;;;9.60;4.20;;;20.90;58.90;;;;;;215583;1272;22580;-55
2022/12/11 21:19:36;;;;;;;5.60;3.50;;;20.80;58.80;;;;;;215614;1276;24309;-54
2022/12/11 21:24:40;;;;;;;10.30;4.20;;;20.70;59.10;;;;;;215548;1276;22470;-55
2022/12/11 21:29:47;;;;;;;11.10;4.50;;;20.80;59.40;;;;;;215484;1282;25391;-56
2022/12/11 21:34:54;;;;;;;9.70;4.30;;;21.10;57.90;;;;;;215431;1272;24036;-56
2022/12/11 21:40:01;;;;;;;7.70;4.00;;;21.40;57.10;;;;;;215793;1276;24248;-56
2022/12/11 21:45:08;;;;;;;10.70;3.90;;;21.70;56.10;;;;;;215544;1279;23843;-54
2022/12/11 21:50:33;;;;;;;8.90;3.90;;;22.00;55.40;;;;;;215358;1276;22494;-56
2022/12/11 21:55:41;;;;;;;9.70;4.00;;;22.20;55.00;;;;;;215508;1277;24012;-55
2022/12/11 22:00:55;;;;;;;9.70;4.00;;;22.30;54.50;;;;;;215438;1276;24253;-55
2022/12/11 22:06:00;;;;;;;6.30;3.90;;;22.40;54.10;;;;;;215495;1277;22746;-54
2022/12/11 22:11:25;;;;;;;16.10;4.50;;;22.50;54.10;;;;;;215620;1277;22715;-53
2022/12/11 22:16:29;;;;;;;8.20;3.90;;;22.70;56.40;;;;;;215595;1290;23995;-55
2022/12/11 22:21:33;;;;;;;12.80;4.80;;;22.80;56.90;;;;;;215486;1283;24369;-56
2022/12/11 22:26:38;;;;;;;11.70;4.30;;;22.80;56.70;;;;;;215615;1272;24243;-55
2022/12/11 22:31:42;;;;;;;15.90;4.70;;;22.90;56.30;;;;;;215463;1276;24246;-54
2022/12/11 22:36:46;;;;;;;12.50;4.60;;;22.80;55.90;;;;;;215733;1282;25284;-54
2022/12/11 22:41:50;;;;;;;11.30;4.30;;;22.90;55.70;;;;;;215377;1295;24013;-52
2022/12/11 22:46:54;;;;;;;8.30;4.70;;;23.00;55.50;;;;;;215586;1283;22557;-54
2022/12/11 22:51:58;;;;;;;8.70;4.90;;;22.90;55.60;;;;;;215527;1289;24336;-56
2022/12/11 22:57:08;;;;;;;12.60;4.40;;;22.80;55.60;;;;;;215089;1269;23252;-54
2022/12/11 23:02:15;;;;;;;10.20;4.50;;;22.70;55.80;;;;;;215643;1297;24202;-52
2022/12/11 23:07:20;;;;;;;7.50;4.10;;;22.60;56.00;;;;;;215521;1284;23259;-54
2022/12/11 23:12:30;;;;;;;12.40;5.10;;;22.50;55.90;;;;;;215554;1283;23189;-54
2022/12/11 23:17:35;;;;;;;14.60;5.70;;;22.40;56.10;;;;;;215570;1297;25298;-54
2022/12/11 23:22:40;;;;;;;11.70;5.50;;;22.40;56.60;;;;;;215547;1282;24308;-54
2022/12/11 23:27:44;;;;;;;16.20;5.90;;;22.30;56.90;;;;;;215647;1277;23714;-54
2022/12/11 23:32:48;;;;;;;13.00;5.90;;;22.20;57.40;;;;;;215252;1282;22452;-53
2022/12/11 23:37:52;;;;;;;15.80;5.90;;;22.20;57.30;;;;;;215266;1282;25388;-53
2022/12/11 23:42:59;;;;;;;20.10;6.50;;;22.10;57.80;;;;;;215584;1281;25359;-53
2022/12/11 23:48:03;;;;;;;15.50;6.00;;;22.00;58.50;;;;;;215560;1283;22581;-54
2022/12/11 23:53:06;;;;;;;18.40;6.60;;;22.00;59.20;;;;;;215569;1277;24025;-54
2022/12/11 23:58:10;;;;;;;17.10;6.50;;;22.00;59.40;;;;;;215417;1280;25310;-53
